sensor_id;sensor_type;location;lat;lon;timestamp;pressure;altitude;pressure_sealevel;temperature;humidity
72063;BME280;59929;43.546;-5.702;2022-09-12T00:01:16;100888.00;;;21.38;71.74
72063;BME280;59929;43.546;-5.702;2022-09-12T00:03:44;100879.63;;;21.43;71.62
72063;BME280;59929;43.546;-5.702;2022-09-12T00:06:15;100859.19;;;21.52;71.32
72063;BME280;59929;43.546;-5.702;2022-09-12T00:08:41;100849.69;;;21.67;70.78
72063;BME280;59929;43.546;-5.702;2022-09-12T00:11:08;100850.81;;;21.66;70.90
72063;BME280;59929;43.546;-5.702;2022-09-12T00:13:35;100850.63;;;21.62;70.66
72063;BME280;59929;43.546;-5.702;2022-09-12T00:16:01;100837.69;;;21.71;70.73
72063;BME280;59929;43.546;-5.702;2022-09-12T00:18:27;100843.34;;;21.88;69.96
72063;BME280;59929;43.546;-5.702;2022-09-12T00:20:53;100841.97;;;22.00;69.34
72063;BME280;59929;43.546;-5.702;2022-09-12T00:23:18;100844.19;;;22.11;68.66
72063;BME280;59929;43.546;-5.702;2022-09-12T00:25:46;100844.84;;;22.17;68.10
72063;BME280;59929;43.546;-5.702;2022-09-12T00:28:13;100856.94;;;22.21;68.06
72063;BME280;59929;43.546;-5.702;2022-09-12T00:30:41;100857.78;;;22.30;67.58
72063;BME280;59929;43.546;-5.702;2022-09-12T00:33:08;100852.94;;;22.35;67.69
72063;BME280;59929;43.546;-5.702;2022-09-12T00:35:41;100856.19;;;22.37;67.52
72063;BME280;59929;43.546;-5.702;2022-09-12T00:38:07;100847.72;;;22.42;67.37
72063;BME280;59929;43.546;-5.702;2022-09-12T00:40:33;100853.81;;;22.53;67.06
72063;BME280;59929;43.546;-5.702;2022-09-12T00:42:58;100853.00;;;22.52;66.48
72063;BME280;59929;43.546;-5.702;2022-09-12T00:45:27;100843.00;;;22.43;66.77
72063;BME280;59929;43.546;-5.702;2022-09-12T00:47:57;100831.97;;;22.51;66.59
72063;BME280;59929;43.546;-5.702;2022-09-12T00:50:26;100820.28;;;22.63;65.88
72063;BME280;59929;43.546;-5.702;2022-09-12T00:52:58;100811.19;;;22.62;65.63
72063;BME280;59929;43.546;-5.702;2022-09-12T00:55:34;100816.47;;;22.50;66.02
72063;BME280;59929;43.546;-5.702;2022-09-12T00:58:13;100809.44;;;22.36;67.01
72063;BME280;59929;43.546;-5.702;2022-09-12T01:00:41;100811.16;;;22.23;67.29
72063;BME280;59929;43.546;-5.702;2022-09-12T01:03:10;100805.63;;;22.32;66.91
72063;BME280;59929;43.546;-5.702;2022-09-12T01:05:43;100797.69;;;22.39;66.20
72063;BME280;59929;43.546;-5.702;2022-09-12T01:08:12;100802.06;;;22.31;66.33
72063;BME280;59929;43.546;-5.702;2022-09-12T01:10:39;100797.00;;;22.25;66.73
72063;BME280;59929;43.546;-5.702;2022-09-12T01:13:08;100800.38;;;22.13;67.08
72063;BME280;59929;43.546;-5.702;2022-09-12T01:15:37;100808.34;;;22.15;67.28
72063;BME280;59929;43.546;-5.702;2022-09-12T01:18:17;100807.25;;;22.24;66.51
72063;BME280;59929;43.546;-5.702;2022-09-12T01:21:08;100813.22;;;22.18;66.73
72063;BME280;59929;43.546;-5.702;2022-09-12T01:24:03;100811.50;;;22.00;67.43
72063;BME280;59929;43.546;-5.702;2022-09-12T01:26:57;100802.09;;;22.01;67.19
72063;BME280;59929;43.546;-5.702;2022-09-12T01:29:44;100797.31;;;21.93;67.79
72063;BME280;59929;43.546;-5.702;2022-09-12T01:35:23;100800.22;;;21.88;68.08
72063;BME280;59929;43.546;-5.702;2022-09-12T01:41:08;100804.59;;;21.88;67.27
72063;BME280;59929;43.546;-5.702;2022-09-12T01:43:45;100802.56;;;21.80;67.85
72063;BME280;59929;43.546;-5.702;2022-09-12T01:46:18;100794.78;;;21.82;67.25
72063;BME280;59929;43.546;-5.702;2022-09-12T01:51:40;100786.72;;;21.72;67.84
72063;BME280;59929;43.546;-5.702;2022-09-12T01:54:25;100775.66;;;21.72;67.83
72063;BME280;59929;43.546;-5.702;2022-09-12T01:56:54;100781.59;;;21.57;68.33
72063;BME280;59929;43.546;-5.702;2022-09-12T01:59:33;100769.03;;;21.51;68.75
72063;BME280;59929;43.546;-5.702;2022-09-12T02:02:08;100773.41;;;21.52;68.24
72063;BME280;59929;43.546;-5.702;2022-09-12T02:04:58;100767.25;;;21.55;68.38
72063;BME280;59929;43.546;-5.702;2022-09-12T02:07:45;100764.84;;;21.62;68.26
72063;BME280;59929;43.546;-5.702;2022-09-12T02:10:19;100742.81;;;21.49;68.55
72063;BME280;59929;43.546;-5.702;2022-09-12T02:12:55;100748.34;;;21.49;68.88
72063;BME280;59929;43.546;-5.702;2022-09-12T02:15:28;100744.06;;;21.43;69.09
72063;BME280;59929;43.546;-5.702;2022-09-12T02:17:58;100746.00;;;21.42;69.42
72063;BME280;59929;43.546;-5.702;2022-09-12T02:20:28;100736.56;;;21.43;69.09
72063;BME280;59929;43.546;-5.702;2022-09-12T02:22:56;100728.59;;;21.42;69.33
72063;BME280;59929;43.546;-5.702;2022-09-12T02:25:24;100728.59;;;21.42;69.31
72063;BME280;59929;43.546;-5.702;2022-09-12T02:27:56;100730.16;;;21.34;69.28
72063;BME280;59929;43.546;-5.702;2022-09-12T02:30:24;100722.13;;;21.24;69.91
72063;BME280;59929;43.546;-5.702;2022-09-12T02:33:00;100725.50;;;21.21;69.74
72063;BME280;59929;43.546;-5.702;2022-09-12T02:35:38;100723.88;;;21.20;69.94
72063;BME280;59929;43.546;-5.702;2022-09-12T02:38:12;100728.69;;;21.15;70.21
72063;BME280;59929;43.546;-5.702;2022-09-12T02:40:40;100735.06;;;21.15;70.24
72063;BME280;59929;43.546;-5.702;2022-09-12T02:43:06;100736.50;;;21.13;70.45
72063;BME280;59929;43.546;-5.702;2022-09-12T02:45:33;100735.38;;;21.14;70.24
72063;BME280;59929;43.546;-5.702;2022-09-12T02:48:07;100730.00;;;20.95;70.90
72063;BME280;59929;43.546;-5.702;2022-09-12T02:50:34;100727.38;;;20.76;71.97
72063;BME280;59929;43.546;-5.702;2022-09-12T02:53:01;100732.50;;;20.69;71.91
72063;BME280;59929;43.546;-5.702;2022-09-12T02:55:31;100733.38;;;20.56;72.93
72063;BME280;59929;43.546;-5.702;2022-09-12T02:57:59;100722.59;;;20.55;73.13
72063;BME280;59929;43.546;-5.702;2022-09-12T03:00:34;100723.00;;;20.62;72.89
72063;BME280;59929;43.546;-5.702;2022-09-12T03:06:00;100705.94;;;20.60;72.91
72063;BME280;59929;43.546;-5.702;2022-09-12T03:11:53;100700.81;;;20.53;73.31
72063;BME280;59929;43.546;-5.702;2022-09-12T03:14:44;100705.50;;;20.66;72.86
72063;BME280;59929;43.546;-5.702;2022-09-12T03:17:36;100705.34;;;20.85;72.02
72063;BME280;59929;43.546;-5.702;2022-09-12T03:20:13;100701.34;;;20.91;71.67
72063;BME280;59929;43.546;-5.702;2022-09-12T03:22:52;100694.63;;;20.83;71.84
72063;BME280;59929;43.546;-5.702;2022-09-12T03:25:26;100698.41;;;20.74;72.32
72063;BME280;59929;43.546;-5.702;2022-09-12T03:28:04;100694.31;;;20.71;72.63
72063;BME280;59929;43.546;-5.702;2022-09-12T03:30:41;100685.47;;;20.61;73.00
72063;BME280;59929;43.546;-5.702;2022-09-12T03:33:11;100678.91;;;20.57;73.34
72063;BME280;59929;43.546;-5.702;2022-09-12T03:35:37;100678.41;;;20.55;73.43
72063;BME280;59929;43.546;-5.702;2022-09-12T03:38:03;100677.53;;;20.46;73.88
72063;BME280;59929;43.546;-5.702;2022-09-12T03:40:29;100683.97;;;20.41;74.22
72063;BME280;59929;43.546;-5.702;2022-09-12T03:42:55;100669.25;;;20.46;74.23
72063;BME280;59929;43.546;-5.702;2022-09-12T03:45:20;100679.59;;;20.40;74.53
72063;BME280;59929;43.546;-5.702;2022-09-12T03:47:46;100678.75;;;20.40;74.54
72063;BME280;59929;43.546;-5.702;2022-09-12T03:50:12;100675.88;;;20.45;74.32
72063;BME280;59929;43.546;-5.702;2022-09-12T03:52:37;100666.84;;;20.53;74.02
72063;BME280;59929;43.546;-5.702;2022-09-12T03:55:04;100675.97;;;20.53;73.81
72063;BME280;59929;43.546;-5.702;2022-09-12T03:57:29;100672.00;;;20.46;74.18
72063;BME280;59929;43.546;-5.702;2022-09-12T03:59:55;100668.66;;;20.35;74.48
72063;BME280;59929;43.546;-5.702;2022-09-12T04:02:21;100670.34;;;20.45;74.38
72063;BME280;59929;43.546;-5.702;2022-09-12T04:04:46;100674.53;;;20.56;73.85
72063;BME280;59929;43.546;-5.702;2022-09-12T04:07:14;100670.34;;;20.58;73.78
72063;BME280;59929;43.546;-5.702;2022-09-12T04:09:40;100668.44;;;20.67;73.34
72063;BME280;59929;43.546;-5.702;2022-09-12T04:12:06;100671.94;;;20.73;73.16
72063;BME280;59929;43.546;-5.702;2022-09-12T04:14:32;100668.91;;;20.61;73.78
72063;BME280;59929;43.546;-5.702;2022-09-12T04:16:58;100670.41;;;20.67;73.61
72063;BME280;59929;43.546;-5.702;2022-09-12T04:19:25;100664.06;;;20.66;73.67
72063;BME280;59929;43.546;-5.702;2022-09-12T04:21:50;100661.72;;;20.60;73.88
72063;BME280;59929;43.546;-5.702;2022-09-12T04:24:16;100668.66;;;20.71;73.54
72063;BME280;59929;43.546;-5.702;2022-09-12T04:26:42;100667.84;;;20.70;73.44
72063;BME280;59929;43.546;-5.702;2022-09-12T04:29:11;100671.13;;;20.59;74.04
72063;BME280;59929;43.546;-5.702;2022-09-12T04:31:36;100654.34;;;20.69;73.57
72063;BME280;59929;43.546;-5.702;2022-09-12T04:34:02;100648.31;;;20.67;73.50
72063;BME280;59929;43.546;-5.702;2022-09-12T04:36:30;100650.34;;;20.61;74.00
72063;BME280;59929;43.546;-5.702;2022-09-12T04:38:55;100638.81;;;20.59;73.86
72063;BME280;59929;43.546;-5.702;2022-09-12T04:41:23;100636.25;;;20.63;73.57
72063;BME280;59929;43.546;-5.702;2022-09-12T04:43:52;100626.56;;;20.52;73.96
72063;BME280;59929;43.546;-5.702;2022-09-12T04:46:19;100634.28;;;20.63;73.65
72063;BME280;59929;43.546;-5.702;2022-09-12T04:48:45;100628.09;;;20.80;73.17
72063;BME280;59929;43.546;-5.702;2022-09-12T04:51:14;100632.50;;;20.81;72.74
72063;BME280;59929;43.546;-5.702;2022-09-12T04:53:41;100628.06;;;20.58;73.56
72063;BME280;59929;43.546;-5.702;2022-09-12T04:56:09;100618.94;;;20.71;72.98
72063;BME280;59929;43.546;-5.702;2022-09-12T04:58:36;100615.34;;;20.70;73.17
72063;BME280;59929;43.546;-5.702;2022-09-12T05:01:08;100620.72;;;20.75;72.75
72063;BME280;59929;43.546;-5.702;2022-09-12T05:03:34;100620.88;;;20.70;73.27
72063;BME280;59929;43.546;-5.702;2022-09-12T05:06:02;100628.06;;;20.58;73.49
72063;BME280;59929;43.546;-5.702;2022-09-12T05:08:28;100618.47;;;20.55;73.93
72063;BME280;59929;43.546;-5.702;2022-09-12T05:10:53;100629.13;;;20.48;73.88
72063;BME280;59929;43.546;-5.702;2022-09-12T05:13:19;100631.25;;;20.51;73.89
72063;BME280;59929;43.546;-5.702;2022-09-12T05:16:03;100624.72;;;20.47;74.48
72063;BME280;59929;43.546;-5.702;2022-09-12T05:18:31;100630.66;;;20.54;74.13
72063;BME280;59929;43.546;-5.702;2022-09-12T05:20:59;100633.19;;;20.64;73.74
72063;BME280;59929;43.546;-5.702;2022-09-12T05:23:29;100630.41;;;20.64;73.87
72063;BME280;59929;43.546;-5.702;2022-09-12T05:25:57;100631.84;;;20.62;73.92
72063;BME280;59929;43.546;-5.702;2022-09-12T05:28:27;100623.97;;;20.55;74.39
72063;BME280;59929;43.546;-5.702;2022-09-12T05:31:04;100624.31;;;20.54;74.60
72063;BME280;59929;43.546;-5.702;2022-09-12T05:33:33;100634.72;;;20.57;74.48
72063;BME280;59929;43.546;-5.702;2022-09-12T05:35:59;100630.44;;;20.51;74.76
72063;BME280;59929;43.546;-5.702;2022-09-12T05:38:25;100624.13;;;20.50;75.08
72063;BME280;59929;43.546;-5.702;2022-09-12T05:41:02;100622.09;;;20.42;74.97
72063;BME280;59929;43.546;-5.702;2022-09-12T05:43:28;100629.94;;;20.49;74.96
72063;BME280;59929;43.546;-5.702;2022-09-12T05:46:00;100627.50;;;20.47;74.95
72063;BME280;59929;43.546;-5.702;2022-09-12T05:48:26;100631.69;;;20.45;74.96
72063;BME280;59929;43.546;-5.702;2022-09-12T05:50:58;100631.19;;;20.43;74.98
72063;BME280;59929;43.546;-5.702;2022-09-12T05:53:26;100625.16;;;20.41;75.12
72063;BME280;59929;43.546;-5.702;2022-09-12T05:56:06;100637.22;;;20.45;75.17
72063;BME280;59929;43.546;-5.702;2022-09-12T05:58:33;100629.44;;;20.47;74.72
72063;BME280;59929;43.546;-5.702;2022-09-12T06:01:02;100633.84;;;20.48;74.57
72063;BME280;59929;43.546;-5.702;2022-09-12T06:03:28;100637.09;;;20.50;74.61
72063;BME280;59929;43.546;-5.702;2022-09-12T06:05:54;100641.19;;;20.52;74.85
72063;BME280;59929;43.546;-5.702;2022-09-12T06:08:20;100645.56;;;20.67;74.25
72063;BME280;59929;43.546;-5.702;2022-09-12T06:10:45;100642.28;;;20.65;74.22
72063;BME280;59929;43.546;-5.702;2022-09-12T06:13:11;100634.19;;;20.68;73.95
72063;BME280;59929;43.546;-5.702;2022-09-12T06:15:36;100629.97;;;20.71;73.83
72063;BME280;59929;43.546;-5.702;2022-09-12T06:18:02;100639.88;;;20.72;73.91
72063;BME280;59929;43.546;-5.702;2022-09-12T06:20:28;100629.97;;;20.71;74.36
72063;BME280;59929;43.546;-5.702;2022-09-12T06:22:53;100628.91;;;20.58;74.48
72063;BME280;59929;43.546;-5.702;2022-09-12T06:25:19;100633.50;;;20.63;74.05
72063;BME280;59929;43.546;-5.702;2022-09-12T06:27:46;100647.16;;;20.68;73.85
72063;BME280;59929;43.546;-5.702;2022-09-12T06:30:12;100631.03;;;20.61;74.11
72063;BME280;59929;43.546;-5.702;2022-09-12T06:32:38;100615.44;;;20.65;74.07
72063;BME280;59929;43.546;-5.702;2022-09-12T06:35:03;100632.16;;;20.60;73.76
72063;BME280;59929;43.546;-5.702;2022-09-12T06:37:30;100641.03;;;20.71;73.74
72063;BME280;59929;43.546;-5.702;2022-09-12T06:39:56;100639.28;;;20.75;73.62
72063;BME280;59929;43.546;-5.702;2022-09-12T06:42:22;100642.03;;;20.75;73.61
72063;BME280;59929;43.546;-5.702;2022-09-12T06:44:48;100645.25;;;20.90;73.17
72063;BME280;59929;43.546;-5.702;2022-09-12T06:47:14;100644.16;;;21.00;72.83
72063;BME280;59929;43.546;-5.702;2022-09-12T06:49:40;100658.41;;;21.07;72.83
72063;BME280;59929;43.546;-5.702;2022-09-12T06:52:05;100646.09;;;21.13;72.56
72063;BME280;59929;43.546;-5.702;2022-09-12T06:54:31;100655.56;;;21.21;72.25
72063;BME280;59929;43.546;-5.702;2022-09-12T06:56:57;100647.69;;;21.36;72.13
72063;BME280;59929;43.546;-5.702;2022-09-12T06:59:22;100647.69;;;21.36;71.89
72063;BME280;59929;43.546;-5.702;2022-09-12T07:01:49;100634.72;;;21.45;71.06
72063;BME280;59929;43.546;-5.702;2022-09-12T07:04:15;100629.88;;;21.51;70.80
72063;BME280;59929;43.546;-5.702;2022-09-12T07:06:41;100618.09;;;21.37;70.77
72063;BME280;59929;43.546;-5.702;2022-09-12T07:09:11;100639.75;;;21.43;70.81
72063;BME280;59929;43.546;-5.702;2022-09-12T07:11:38;100640.56;;;21.44;71.01
72063;BME280;59929;43.546;-5.702;2022-09-12T07:14:05;100641.88;;;21.46;70.70
72063;BME280;59929;43.546;-5.702;2022-09-12T07:16:34;100621.47;;;21.64;70.16
72063;BME280;59929;43.546;-5.702;2022-09-12T07:19:01;100633.88;;;21.75;69.55
72063;BME280;59929;43.546;-5.702;2022-09-12T07:21:28;100627.19;;;21.76;69.69
72063;BME280;59929;43.546;-5.702;2022-09-12T07:23:54;100635.91;;;21.83;69.34
72063;BME280;59929;43.546;-5.702;2022-09-12T07:26:22;100635.75;;;21.97;68.97
72063;BME280;59929;43.546;-5.702;2022-09-12T07:28:51;100624.88;;;22.01;68.85
72063;BME280;59929;43.546;-5.702;2022-09-12T07:31:19;100631.56;;;22.08;68.32
72063;BME280;59929;43.546;-5.702;2022-09-12T07:33:45;100616.94;;;22.16;67.92
72063;BME280;59929;43.546;-5.702;2022-09-12T07:36:13;100610.25;;;22.34;67.33
72063;BME280;59929;43.546;-5.702;2022-09-12T07:38:39;100623.00;;;22.35;67.44
72063;BME280;59929;43.546;-5.702;2022-09-12T07:41:14;100615.66;;;22.48;67.37
72063;BME280;59929;43.546;-5.702;2022-09-12T07:43:40;100610.94;;;22.57;66.39
72063;BME280;59929;43.546;-5.702;2022-09-12T07:46:07;100607.00;;;22.41;66.60
72063;BME280;59929;43.546;-5.702;2022-09-12T07:48:33;100608.53;;;22.64;66.05
72063;BME280;59929;43.546;-5.702;2022-09-12T07:51:01;100602.00;;;22.77;65.92
72063;BME280;59929;43.546;-5.702;2022-09-12T07:53:34;100602.31;;;22.84;66.04
72063;BME280;59929;43.546;-5.702;2022-09-12T07:56:00;100617.28;;;23.00;65.53
72063;BME280;59929;43.546;-5.702;2022-09-12T07:58:28;100609.75;;;23.18;64.91
72063;BME280;59929;43.546;-5.702;2022-09-12T08:01:04;100613.16;;;23.40;64.62
72063;BME280;59929;43.546;-5.702;2022-09-12T08:03:30;100605.97;;;23.39;64.07
72063;BME280;59929;43.546;-5.702;2022-09-12T08:06:04;100612.00;;;23.41;63.77
72063;BME280;59929;43.546;-5.702;2022-09-12T08:08:30;100608.44;;;23.41;64.33
72063;BME280;59929;43.546;-5.702;2022-09-12T08:10:58;100618.19;;;23.47;64.36
72063;BME280;59929;43.546;-5.702;2022-09-12T08:13:25;100607.84;;;23.56;64.41
72063;BME280;59929;43.546;-5.702;2022-09-12T08:15:51;100623.56;;;23.52;63.58
72063;BME280;59929;43.546;-5.702;2022-09-12T08:18:16;100627.78;;;23.50;63.75
72063;BME280;59929;43.546;-5.702;2022-09-12T08:20:42;100615.84;;;23.58;63.91
72063;BME280;59929;43.546;-5.702;2022-09-12T08:23:08;100629.13;;;23.43;62.77
72063;BME280;59929;43.546;-5.702;2022-09-12T08:25:33;100631.91;;;23.43;62.94
72063;BME280;59929;43.546;-5.702;2022-09-12T08:27:59;100615.81;;;23.66;62.27
72063;BME280;59929;43.546;-5.702;2022-09-12T08:30:25;100625.38;;;23.86;60.94
72063;BME280;59929;43.546;-5.702;2022-09-12T08:32:51;100607.50;;;23.95;60.69
72063;BME280;59929;43.546;-5.702;2022-09-12T08:35:17;100619.16;;;24.18;60.69
72063;BME280;59929;43.546;-5.702;2022-09-12T08:37:42;100611.91;;;24.46;60.04
72063;BME280;59929;43.546;-5.702;2022-09-12T08:40:14;100628.00;;;24.61;58.01
72063;BME280;59929;43.546;-5.702;2022-09-12T08:43:02;100627.06;;;24.57;58.58
72063;BME280;59929;43.546;-5.702;2022-09-12T08:45:35;100621.63;;;24.81;57.65
72063;BME280;59929;43.546;-5.702;2022-09-12T08:48:08;100624.28;;;24.78;58.29
72063;BME280;59929;43.546;-5.702;2022-09-12T08:50:35;100627.47;;;24.88;58.07
72063;BME280;59929;43.546;-5.702;2022-09-12T08:53:05;100629.16;;;25.01;57.41
72063;BME280;59929;43.546;-5.702;2022-09-12T08:55:39;100642.84;;;25.07;57.54
72063;BME280;59929;43.546;-5.702;2022-09-12T08:58:13;100639.66;;;25.29;57.60
72063;BME280;59929;43.546;-5.702;2022-09-12T09:10:14;100634.69;;;25.91;55.38
72063;BME280;59929;43.546;-5.702;2022-09-12T09:13:01;100643.63;;;25.84;55.35
72063;BME280;59929;43.546;-5.702;2022-09-12T09:15:48;100639.44;;;25.91;54.33
72063;BME280;59929;43.546;-5.702;2022-09-12T09:18:27;100639.81;;;26.13;54.06
72063;BME280;59929;43.546;-5.702;2022-09-12T09:21:02;100640.59;;;26.38;53.39
72063;BME280;59929;43.546;-5.702;2022-09-12T09:23:39;100640.91;;;26.60;52.23
72063;BME280;59929;43.546;-5.702;2022-09-12T09:26:14;100640.75;;;26.81;52.07
72063;BME280;59929;43.546;-5.702;2022-09-12T09:28:46;100632.47;;;27.12;51.29
72063;BME280;59929;43.546;-5.702;2022-09-12T09:31:16;100625.81;;;27.17;51.40
72063;BME280;59929;43.546;-5.702;2022-09-12T09:33:43;100638.47;;;26.99;52.08
72063;BME280;59929;43.546;-5.702;2022-09-12T09:36:32;100627.88;;;27.04;52.65
72063;BME280;59929;43.546;-5.702;2022-09-12T09:39:18;100626.81;;;27.09;52.28
72063;BME280;59929;43.546;-5.702;2022-09-12T09:42:09;100614.25;;;27.30;51.70
72063;BME280;59929;43.546;-5.702;2022-09-12T09:44:37;100612.97;;;27.28;51.31
72063;BME280;59929;43.546;-5.702;2022-09-12T09:47:03;100610.44;;;27.23;51.20
72063;BME280;59929;43.546;-5.702;2022-09-12T09:49:32;100609.59;;;27.34;50.97
72063;BME280;59929;43.546;-5.702;2022-09-12T09:51:58;100618.25;;;27.45;50.41
72063;BME280;59929;43.546;-5.702;2022-09-12T09:54:33;100616.75;;;27.63;50.35
72063;BME280;59929;43.546;-5.702;2022-09-12T09:57:00;100617.09;;;27.77;49.58
72063;BME280;59929;43.546;-5.702;2022-09-12T09:59:29;100624.47;;;27.85;49.41
72063;BME280;59929;43.546;-5.702;2022-09-12T10:01:57;100634.22;;;27.76;48.48
72063;BME280;59929;43.546;-5.702;2022-09-12T10:04:30;100634.41;;;27.67;49.12
72063;BME280;59929;43.546;-5.702;2022-09-12T10:06:59;100620.25;;;27.60;48.60
72063;BME280;59929;43.546;-5.702;2022-09-12T10:09:27;100616.63;;;27.75;48.49
72063;BME280;59929;43.546;-5.702;2022-09-12T10:11:54;100614.13;;;27.86;47.85
72063;BME280;59929;43.546;-5.702;2022-09-12T10:14:38;100619.16;;;28.11;47.66
72063;BME280;59929;43.546;-5.702;2022-09-12T10:17:38;100611.78;;;28.38;46.65
72063;BME280;59929;43.546;-5.702;2022-09-12T10:20:01;100613.66;;;28.50;47.00
72063;BME280;59929;43.546;-5.702;2022-09-12T10:22:28;100612.44;;;28.66;47.20
72063;BME280;59929;43.546;-5.702;2022-09-12T10:24:58;100612.13;;;28.90;46.78
72063;BME280;59929;43.546;-5.702;2022-09-12T10:27:28;100616.53;;;29.11;46.19
72063;BME280;59929;43.546;-5.702;2022-09-12T10:30:03;100628.41;;;29.23;46.16
72063;BME280;59929;43.546;-5.702;2022-09-12T10:32:33;100626.81;;;29.22;46.51
72063;BME280;59929;43.546;-5.702;2022-09-12T10:35:06;100640.38;;;29.20;47.13
72063;BME280;59929;43.546;-5.702;2022-09-12T10:37:37;100651.56;;;29.20;47.66
72063;BME280;59929;43.546;-5.702;2022-09-12T10:40:06;100647.88;;;29.16;47.31
72063;BME280;59929;43.546;-5.702;2022-09-12T10:42:45;100646.91;;;29.28;47.12
72063;BME280;59929;43.546;-5.702;2022-09-12T10:45:26;100651.56;;;29.01;47.67
72063;BME280;59929;43.546;-5.702;2022-09-12T10:47:56;100650.94;;;28.73;48.01
72063;BME280;59929;43.546;-5.702;2022-09-12T10:50:26;100648.13;;;28.73;47.81
72063;BME280;59929;43.546;-5.702;2022-09-12T10:52:53;100654.19;;;28.75;48.14
72063;BME280;59929;43.546;-5.702;2022-09-12T10:55:24;100638.72;;;29.00;47.23
72063;BME280;59929;43.546;-5.702;2022-09-12T10:58:12;100633.78;;;28.74;47.88
72063;BME280;59929;43.546;-5.702;2022-09-12T11:00:46;100638.66;;;28.77;47.76
72063;BME280;59929;43.546;-5.702;2022-09-12T11:03:33;100627.22;;;28.67;47.79
72063;BME280;59929;43.546;-5.702;2022-09-12T11:06:04;100651.53;;;28.82;48.23
72063;BME280;59929;43.546;-5.702;2022-09-12T11:08:49;100642.63;;;28.95;47.69
72063;BME280;59929;43.546;-5.702;2022-09-12T11:11:44;100640.41;;;29.43;46.41
72063;BME280;59929;43.546;-5.702;2022-09-12T11:14:31;100644.88;;;29.47;45.99
72063;BME280;59929;43.546;-5.702;2022-09-12T11:17:18;100645.44;;;29.34;46.35
72063;BME280;59929;43.546;-5.702;2022-09-12T11:31:38;100612.66;;;30.88;43.16
72063;BME280;59929;43.546;-5.702;2022-09-12T11:34:09;100609.66;;;31.03;42.72
72063;BME280;59929;43.546;-5.702;2022-09-12T11:39:30;100618.66;;;31.19;42.67
72063;BME280;59929;43.546;-5.702;2022-09-12T11:42:03;100601.13;;;30.96;41.72
72063;BME280;59929;43.546;-5.702;2022-09-12T11:44:40;100624.06;;;31.02;42.04
72063;BME280;59929;43.546;-5.702;2022-09-12T11:47:11;100613.31;;;31.07;41.57
72063;BME280;59929;43.546;-5.702;2022-09-12T11:49:45;100618.53;;;31.46;41.07
72063;BME280;59929;43.546;-5.702;2022-09-12T11:52:28;100610.00;;;31.79;39.83
72063;BME280;59929;43.546;-5.702;2022-09-12T11:55:03;100619.50;;;31.64;40.41
72063;BME280;59929;43.546;-5.702;2022-09-12T12:00:25;100622.09;;;31.86;39.26
72063;BME280;59929;43.546;-5.702;2022-09-12T12:03:13;100630.66;;;31.53;39.93
72063;BME280;59929;43.546;-5.702;2022-09-12T12:06:01;100623.88;;;31.21;40.15
72063;BME280;59929;43.546;-5.702;2022-09-12T12:08:31;100637.59;;;30.93;41.42
72063;BME280;59929;43.546;-5.702;2022-09-12T12:10:59;100633.16;;;30.62;42.53
72063;BME280;59929;43.546;-5.702;2022-09-12T12:13:35;100634.09;;;30.43;43.16
72063;BME280;59929;43.546;-5.702;2022-09-12T12:16:07;100638.47;;;30.15;42.60
72063;BME280;59929;43.546;-5.702;2022-09-12T12:18:39;100629.25;;;29.92;43.17
72063;BME280;59929;43.546;-5.702;2022-09-12T12:21:35;100636.69;;;29.81;43.49
72063;BME280;59929;43.546;-5.702;2022-09-12T12:24:21;100635.00;;;30.25;42.38
72063;BME280;59929;43.546;-5.702;2022-09-12T12:26:57;100627.28;;;30.44;42.08
72063;BME280;59929;43.546;-5.702;2022-09-12T12:29:41;100622.84;;;30.99;41.29
72063;BME280;59929;43.546;-5.702;2022-09-12T12:32:20;100627.63;;;31.32;40.04
72063;BME280;59929;43.546;-5.702;2022-09-12T12:34:46;100620.31;;;31.61;39.87
72063;BME280;59929;43.546;-5.702;2022-09-12T12:37:48;100633.97;;;31.66;39.14
72063;BME280;59929;43.546;-5.702;2022-09-12T12:40:23;100637.63;;;30.96;40.24
72063;BME280;59929;43.546;-5.702;2022-09-12T12:42:57;100645.69;;;30.42;41.29
72063;BME280;59929;43.546;-5.702;2022-09-12T12:45:44;100668.09;;;29.90;43.22
72063;BME280;59929;43.546;-5.702;2022-09-12T12:48:14;100677.81;;;29.54;44.07
72063;BME280;59929;43.546;-5.702;2022-09-12T12:50:41;100674.16;;;29.31;44.09
72063;BME280;59929;43.546;-5.702;2022-09-12T12:53:25;100664.06;;;29.07;44.05
72063;BME280;59929;43.546;-5.702;2022-09-12T12:55:54;100676.22;;;28.76;45.10
72063;BME280;59929;43.546;-5.702;2022-09-12T12:58:32;100665.78;;;28.07;47.36
72063;BME280;59929;43.546;-5.702;2022-09-12T13:01:18;100655.22;;;28.01;47.98
72063;BME280;59929;43.546;-5.702;2022-09-12T13:04:02;100637.25;;;28.17;48.12
72063;BME280;59929;43.546;-5.702;2022-09-12T13:06:34;100638.31;;;28.29;47.70
72063;BME280;59929;43.546;-5.702;2022-09-12T13:09:06;100629.31;;;28.89;46.54
72063;BME280;59929;43.546;-5.702;2022-09-12T13:11:37;100624.91;;;29.94;44.40
72063;BME280;59929;43.546;-5.702;2022-09-12T13:14:05;100610.84;;;30.73;42.31
72063;BME280;59929;43.546;-5.702;2022-09-12T13:16:39;100596.69;;;30.10;43.43
72063;BME280;59929;43.546;-5.702;2022-09-12T13:19:11;100604.44;;;30.46;43.13
72063;BME280;59929;43.546;-5.702;2022-09-12T13:21:38;100594.47;;;30.48;42.63
72063;BME280;59929;43.546;-5.702;2022-09-12T13:24:12;100618.19;;;30.84;42.25
72063;BME280;59929;43.546;-5.702;2022-09-12T13:26:43;100584.97;;;30.86;41.09
72063;BME280;59929;43.546;-5.702;2022-09-12T13:29:19;100600.69;;;30.94;41.16
72063;BME280;59929;43.546;-5.702;2022-09-12T13:31:47;100580.03;;;31.13;39.45
72063;BME280;59929;43.546;-5.702;2022-09-12T13:34:19;100561.91;;;31.44;39.06
72063;BME280;59929;43.546;-5.702;2022-09-12T13:40:03;100548.28;;;31.46;38.31
72063;BME280;59929;43.546;-5.702;2022-09-12T13:42:39;100538.16;;;30.97;39.71
72063;BME280;59929;43.546;-5.702;2022-09-12T13:45:12;100520.38;;;30.86;40.15
72063;BME280;59929;43.546;-5.702;2022-09-12T13:47:44;100517.88;;;30.48;41.00